createdAt,value
2018-05-09T00:00:35.724Z,90.90
2018-05-09T00:03:03.307Z,91.00
2018-05-09T00:08:24.476Z,92.00
2018-05-09T00:10:52.102Z,91.80
2018-05-09T00:13:19.696Z,92.00
2018-05-09T00:15:47.287Z,92.30
2018-05-09T00:18:14.899Z,92.40
2018-05-09T00:20:42.488Z,92.40
2018-05-09T00:23:10.100Z,92.60
2018-05-09T00:25:37.695Z,93.40
2018-05-09T00:28:05.287Z,93.80
2018-05-09T00:30:32.898Z,93.80
2018-05-09T00:33:00.518Z,93.40
2018-05-09T00:35:28.152Z,93.30
2018-05-09T00:37:55.739Z,93.10
2018-05-09T00:40:23.337Z,93.00
2018-05-09T00:42:51.023Z,92.90
2018-05-09T00:45:18.651Z,93.00
2018-05-09T00:47:46.276Z,93.30
2018-05-09T00:50:13.919Z,93.30
2018-05-09T00:52:41.493Z,93.50
2018-05-09T00:55:09.117Z,94.00
2018-05-09T00:57:36.708Z,94.00
2018-05-09T01:00:04.333Z,94.50
2018-05-09T01:02:31.928Z,94.60
2018-05-09T01:04:59.519Z,95.10
2018-05-09T01:07:28.823Z,95.00
2018-05-09T01:09:57.179Z,95.10
2018-05-09T01:12:24.794Z,95.10
2018-05-09T01:14:52.385Z,95.50
2018-05-09T01:17:19.975Z,95.40
2018-05-09T01:19:48.357Z,96.30
2018-05-09T01:22:16.707Z,96.30
2018-05-09T01:24:44.324Z,96.30
2018-05-09T01:27:11.919Z,96.40
2018-05-09T01:29:39.508Z,96.50
2018-05-09T01:32:07.900Z,96.90
2018-05-09T01:34:37.696Z,97.10
2018-05-09T01:37:06.081Z,97.20
2018-05-09T01:39:34.438Z,97.40
2018-05-09T01:42:02.032Z,97.40
2018-05-09T01:44:30.438Z,97.70
2018-05-09T01:46:58.028Z,97.70
2018-05-09T01:49:25.645Z,97.50
2018-05-09T01:51:53.253Z,98.00
2018-05-09T01:54:20.890Z,97.70
2018-05-09T01:56:54.553Z,97.90
2018-05-09T01:59:22.937Z,98.00
2018-05-09T02:01:50.529Z,98.00
2018-05-09T02:04:18.125Z,98.10
2018-05-09T02:06:45.739Z,98.30
2018-05-09T02:09:13.324Z,98.30
2018-05-09T02:11:40.948Z,98.40
2018-05-09T02:14:08.533Z,98.60
2018-05-09T02:16:46.538Z,98.70
2018-05-09T02:19:14.126Z,98.60
2018-05-09T02:21:41.722Z,98.50
2018-05-09T02:24:09.361Z,98.10
2018-05-09T02:26:37.716Z,97.30
2018-05-09T02:29:05.335Z,97.30
2018-05-09T02:31:32.938Z,97.20
2018-05-09T02:34:00.561Z,97.70
2018-05-09T02:36:28.161Z,97.20
2018-05-09T02:38:55.753Z,97.50
2018-05-09T02:41:24.140Z,97.90
2018-05-09T02:43:51.736Z,97.80
2018-05-09T02:46:19.357Z,98.30
2018-05-09T02:49:04.393Z,98.90
2018-05-09T02:51:32.018Z,98.90
2018-05-09T02:53:59.608Z,99.00
2018-05-09T02:56:27.192Z,99.10
2018-05-09T02:58:55.572Z,99.30
2018-05-09T03:01:23.933Z,99.10
2018-05-09T03:03:51.552Z,99.00
2018-05-09T03:06:19.148Z,99.00
2018-05-09T03:08:46.755Z,98.80
2018-05-09T03:11:14.422Z,98.80
2018-05-09T03:13:42.016Z,98.90
2018-05-09T03:16:09.632Z,98.80
2018-05-09T03:18:37.228Z,99.10
2018-05-09T03:21:04.819Z,99.00
2018-05-09T03:23:32.448Z,99.20
2018-05-09T03:26:00.044Z,98.80
2018-05-09T03:28:30.794Z,98.80
2018-05-09T03:30:59.169Z,98.90
2018-05-09T03:33:27.548Z,99.10
2018-05-09T03:35:55.904Z,99.40
2018-05-09T03:38:23.495Z,99.40
2018-05-09T03:40:51.896Z,99.50
2018-05-09T03:43:19.578Z,99.50
2018-05-09T03:45:47.393Z,99.50
2018-05-09T03:48:15.012Z,99.80
2018-05-09T03:50:42.635Z,99.90
2018-05-09T03:53:10.239Z,99.90
2018-05-09T03:55:37.852Z,99.90
2018-05-09T03:58:05.470Z,99.90
2018-05-09T04:00:33.060Z,99.90
2018-05-09T04:03:13.285Z,99.90
2018-05-09T04:05:52.671Z,99.90
2018-05-09T04:08:32.124Z,99.90
2018-05-09T04:10:59.720Z,99.90
2018-05-09T04:13:27.336Z,99.90
2018-05-09T04:15:54.940Z,99.90
2018-05-09T04:18:22.551Z,99.90
2018-05-09T04:20:50.216Z,99.90
2018-05-09T04:23:18.553Z,99.90
2018-05-09T04:25:46.144Z,99.90
2018-05-09T04:28:13.803Z,99.90
2018-05-09T04:30:41.401Z,99.90
2018-05-09T04:33:08.996Z,99.90
2018-05-09T04:35:36.614Z,99.90
2018-05-09T04:40:57.715Z,99.90
2018-05-09T04:43:27.283Z,99.90
2018-05-09T04:45:54.884Z,99.90
2018-05-09T04:48:22.509Z,99.90
2018-05-09T04:51:04.100Z,99.90
2018-05-09T04:53:31.722Z,99.90
2018-05-09T04:55:59.322Z,99.90
2018-05-09T04:58:26.916Z,99.90
2018-05-09T05:00:54.541Z,99.90
2018-05-09T05:03:22.136Z,99.90
2018-05-09T05:05:49.751Z,99.90
2018-05-09T05:08:17.349Z,99.90
2018-05-09T05:10:44.953Z,99.80
2018-05-09T05:13:12.576Z,99.60
2018-05-09T05:15:40.237Z,99.60
2018-05-09T05:18:07.836Z,99.30
2018-05-09T05:20:35.433Z,99.00
2018-05-09T05:23:03.028Z,99.30
2018-05-09T05:25:30.644Z,99.90
2018-05-09T05:27:58.248Z,99.90
2018-05-09T05:30:32.172Z,99.90
2018-05-09T05:32:59.776Z,99.90
2018-05-09T05:35:27.382Z,99.90
2018-05-09T05:37:55.016Z,99.90
2018-05-09T05:40:23.375Z,99.90
2018-05-09T05:42:51.000Z,99.90
2018-05-09T05:45:18.675Z,99.90
2018-05-09T05:47:46.260Z,99.90
2018-05-09T05:50:13.890Z,99.50
2018-05-09T05:52:41.497Z,98.70
2018-05-09T05:55:09.908Z,95.70
2018-05-09T05:57:37.512Z,95.70
2018-05-09T06:00:05.148Z,92.90
2018-05-09T06:02:32.767Z,92.90
2018-05-09T06:05:01.128Z,90.70
2018-05-09T06:07:29.521Z,91.00
2018-05-09T06:09:57.887Z,89.40
2018-05-09T06:12:26.264Z,90.50
2018-05-09T06:14:54.664Z,88.70
2018-05-09T06:17:22.286Z,88.60
2018-05-09T06:19:49.908Z,89.70
2018-05-09T06:22:17.500Z,87.80
2018-05-09T06:24:45.100Z,89.00
2018-05-09T06:27:13.493Z,85.40
2018-05-09T06:29:41.087Z,85.40
2018-05-09T06:32:08.722Z,84.20
2018-05-09T06:34:36.330Z,87.50
2018-05-09T06:37:03.921Z,86.20
2018-05-09T06:39:31.549Z,88.70
2018-05-09T06:41:59.148Z,87.60
2018-05-09T06:44:26.769Z,87.40
2018-05-09T06:46:54.372Z,89.40
2018-05-09T06:49:21.977Z,89.90
2018-05-09T06:51:49.592Z,90.00
2018-05-09T06:54:17.189Z,88.10
2018-05-09T06:56:44.804Z,88.30
2018-05-09T06:59:13.161Z,88.30
2018-05-09T07:01:41.702Z,88.40
2018-05-09T07:04:09.320Z,85.70
2018-05-09T07:06:37.816Z,87.20
2018-05-09T07:09:05.330Z,87.20
2018-05-09T07:11:32.933Z,85.20
2018-05-09T07:14:00.524Z,86.00
2018-05-09T07:16:28.140Z,84.00
2018-05-09T07:18:56.496Z,83.70
2018-05-09T07:21:24.116Z,83.60
2018-05-09T07:23:51.715Z,84.60
2018-05-09T07:26:19.317Z,81.40
2018-05-09T07:28:46.929Z,79.90
2018-05-09T07:31:14.521Z,81.70
2018-05-09T07:33:42.905Z,81.30
2018-05-09T07:36:10.504Z,81.30
2018-05-09T07:38:38.095Z,79.40
2018-05-09T07:41:05.717Z,80.60
2018-05-09T07:43:33.313Z,80.20
2018-05-09T07:46:00.933Z,78.80
2018-05-09T07:48:28.526Z,80.80
2018-05-09T07:50:56.884Z,81.50
2018-05-09T07:53:24.504Z,81.60
2018-05-09T07:55:52.906Z,82.10
2018-05-09T07:58:20.528Z,82.10
2018-05-09T08:00:48.907Z,80.60
2018-05-09T08:03:17.270Z,81.20
2018-05-09T08:05:44.887Z,81.10
2018-05-09T08:08:12.489Z,82.30
2018-05-09T08:10:40.109Z,82.30
2018-05-09T08:13:07.713Z,82.90
2018-05-09T08:15:35.314Z,83.40
2018-05-09T08:18:02.953Z,82.20
2018-05-09T08:20:31.334Z,81.20
2018-05-09T08:22:59.751Z,81.30
2018-05-09T08:25:27.352Z,81.40
2018-05-09T08:27:54.968Z,81.60
2018-05-09T08:30:22.606Z,82.10
2018-05-09T08:32:50.247Z,80.50
2018-05-09T08:35:18.653Z,80.00
2018-05-09T08:37:46.253Z,79.90
2018-05-09T08:40:13.852Z,77.30
2018-05-09T08:42:42.231Z,79.60
2018-05-09T08:45:10.591Z,78.70
2018-05-09T08:47:38.211Z,78.70
2018-05-09T08:50:05.803Z,79.10
2018-05-09T08:52:37.065Z,79.90
2018-05-09T08:55:04.682Z,82.20
2018-05-09T08:57:32.279Z,84.20
2018-05-09T08:59:59.897Z,77.80
2018-05-09T09:02:27.491Z,78.90
2018-05-09T09:04:55.104Z,80.80
2018-05-09T09:07:22.724Z,78.20
2018-05-09T09:09:50.313Z,76.00
2018-05-09T09:12:18.698Z,77.30
2018-05-09T09:14:46.295Z,77.30
2018-05-09T09:17:13.893Z,77.50
2018-05-09T09:19:42.297Z,76.90
2018-05-09T09:22:09.900Z,76.90
2018-05-09T09:24:37.538Z,77.50
2018-05-09T09:27:05.951Z,77.20
2018-05-09T09:29:33.901Z,76.90
2018-05-09T09:32:01.542Z,76.10
2018-05-09T09:34:29.184Z,76.80
2018-05-09T09:36:57.575Z,74.70
2018-05-09T09:39:25.186Z,74.70
2018-05-09T09:41:52.802Z,73.40
2018-05-09T09:44:20.429Z,74.50
2018-05-09T09:46:48.790Z,76.10
2018-05-09T09:49:16.432Z,75.30
2018-05-09T09:51:44.035Z,78.00
2018-05-09T09:54:12.405Z,76.70
2018-05-09T09:56:40.803Z,76.00
2018-05-09T09:59:08.434Z,76.10
2018-05-09T10:01:36.148Z,77.30
2018-05-09T10:04:03.693Z,76.60
2018-05-09T10:06:31.290Z,74.90
2018-05-09T10:08:58.906Z,77.30
2018-05-09T10:11:26.494Z,77.30
2018-05-09T10:13:54.121Z,75.30
2018-05-09T10:16:22.578Z,74.90
2018-05-09T10:21:44.437Z,74.00
2018-05-09T10:24:12.849Z,72.30
2018-05-09T10:26:40.472Z,72.30
2018-05-09T10:29:08.837Z,73.50
2018-05-09T10:31:36.496Z,73.40
2018-05-09T10:34:04.293Z,72.10
2018-05-09T10:36:31.936Z,69.90
2018-05-09T10:38:59.601Z,69.00
2018-05-09T10:41:27.955Z,69.00
2018-05-09T10:43:55.803Z,69.00
2018-05-09T10:46:23.413Z,68.40
2018-05-09T10:48:51.813Z,68.50
2018-05-09T10:51:19.400Z,68.50
2018-05-09T10:53:47.010Z,69.90
2018-05-09T10:56:15.404Z,67.30
2018-05-09T10:58:43.013Z,67.20
2018-05-09T11:01:10.641Z,66.60
2018-05-09T11:03:38.248Z,62.50
2018-05-09T11:06:05.844Z,63.00
2018-05-09T11:08:34.057Z,63.90
2018-05-09T11:11:19.661Z,66.60
2018-05-09T11:13:47.300Z,65.70
2018-05-09T11:16:14.923Z,65.20
2018-05-09T11:18:42.527Z,63.10
2018-05-09T11:21:10.221Z,62.70
2018-05-09T11:23:38.617Z,65.80
2018-05-09T11:26:13.843Z,62.90
2018-05-09T11:28:41.589Z,62.70
2018-05-09T11:31:09.203Z,64.20
2018-05-09T11:33:36.834Z,64.80
2018-05-09T11:36:05.202Z,66.50
2018-05-09T11:38:33.655Z,67.20
2018-05-09T11:41:01.251Z,67.20
2018-05-09T11:43:29.627Z,67.00
2018-05-09T11:45:58.017Z,67.00
2018-05-09T11:48:26.443Z,68.50
2018-05-09T11:50:54.095Z,68.50
2018-05-09T11:53:21.680Z,70.60
2018-05-09T11:55:49.333Z,67.20
2018-05-09T11:58:16.995Z,69.10
2018-05-09T12:00:44.892Z,66.10
2018-05-09T12:03:12.881Z,69.90
2018-05-09T12:05:40.726Z,69.40
2018-05-09T12:08:09.127Z,68.60
2018-05-09T12:10:37.594Z,68.30
2018-05-09T12:13:05.128Z,68.30
2018-05-09T12:15:32.752Z,65.20
2018-05-09T12:18:00.386Z,66.20
2018-05-09T12:20:28.752Z,66.20
2018-05-09T12:23:00.135Z,64.60
2018-05-09T12:25:27.785Z,64.50
2018-05-09T12:27:55.425Z,67.60
2018-05-09T12:30:23.827Z,66.00
2018-05-09T12:32:51.421Z,65.90
2018-05-09T12:35:19.029Z,66.30
2018-05-09T12:38:04.014Z,66.10
2018-05-09T12:40:31.650Z,66.10
2018-05-09T12:42:59.233Z,64.10
2018-05-09T12:45:27.588Z,68.00
2018-05-09T12:47:55.217Z,67.90
2018-05-09T12:50:22.822Z,65.20
2018-05-09T12:52:51.248Z,65.50
2018-05-09T12:55:18.841Z,65.50
2018-05-09T12:57:47.940Z,65.10
2018-05-09T13:00:15.559Z,65.10
2018-05-09T13:02:43.168Z,64.20
2018-05-09T13:05:11.597Z,67.00
2018-05-09T13:07:39.190Z,66.90
2018-05-09T13:10:06.799Z,65.70
2018-05-09T13:12:34.409Z,65.20
2018-05-09T13:15:02.006Z,63.70
2018-05-09T13:17:30.529Z,65.30
2018-05-09T13:19:58.161Z,65.20
2018-05-09T13:22:26.667Z,63.20
2018-05-09T13:24:54.376Z,60.50
2018-05-09T13:27:25.200Z,61.30
2018-05-09T13:29:52.836Z,60.10
2018-05-09T13:32:20.431Z,59.00
2018-05-09T13:34:48.058Z,60.20
2018-05-09T13:37:15.674Z,63.30
2018-05-09T13:39:44.047Z,63.60
2018-05-09T13:42:12.435Z,64.30
2018-05-09T13:44:40.067Z,64.50
2018-05-09T13:47:07.677Z,63.00
2018-05-09T13:49:35.293Z,63.70
2018-05-09T13:52:03.664Z,61.60
2018-05-09T13:54:31.286Z,61.50
2018-05-09T13:56:58.869Z,63.10
2018-05-09T13:59:26.453Z,61.40
2018-05-09T14:01:54.843Z,58.80
2018-05-09T14:04:22.458Z,58.80
2018-05-09T14:06:50.068Z,58.10
2018-05-09T14:09:18.440Z,56.40
2018-05-09T14:11:46.805Z,58.20
2018-05-09T14:14:14.419Z,58.20
2018-05-09T14:16:42.013Z,58.90
2018-05-09T14:19:09.645Z,55.20
2018-05-09T14:21:37.244Z,52.20
2018-05-09T14:24:04.842Z,51.80
2018-05-09T14:26:32.451Z,51.00
2018-05-09T14:29:00.045Z,49.80
2018-05-09T14:31:28.429Z,50.20
2018-05-09T14:33:56.032Z,50.20
2018-05-09T14:36:23.636Z,52.70
2018-05-09T14:38:52.036Z,53.70
2018-05-09T14:41:19.628Z,53.60
2018-05-09T14:43:47.249Z,53.00
2018-05-09T14:46:14.844Z,53.30
2018-05-09T14:48:42.432Z,54.80
2018-05-09T14:51:10.060Z,54.70
2018-05-09T14:53:37.656Z,54.00
2018-05-09T14:56:05.286Z,54.40
2018-05-09T14:58:32.875Z,53.20
2018-05-09T15:01:00.461Z,52.90
2018-05-09T15:03:28.848Z,54.00
2018-05-09T15:05:57.216Z,55.40
2018-05-09T15:08:25.602Z,56.60
2018-05-09T15:10:53.963Z,55.50
2018-05-09T15:13:24.499Z,55.50
2018-05-09T15:15:52.884Z,53.00
2018-05-09T15:18:21.236Z,51.90
2018-05-09T15:20:48.854Z,51.80
2018-05-09T15:23:19.584Z,53.50
2018-05-09T15:25:47.185Z,53.90
2018-05-09T15:28:14.803Z,51.20
2018-05-09T15:30:42.427Z,49.70
2018-05-09T15:33:10.057Z,49.00
2018-05-09T15:35:37.649Z,48.80
2018-05-09T15:38:06.039Z,48.80
2018-05-09T15:40:34.413Z,45.60
2018-05-09T15:43:02.808Z,46.10
2018-05-09T15:45:30.406Z,46.10
2018-05-09T15:47:57.999Z,48.00
2018-05-09T15:50:25.622Z,48.60
2018-05-09T15:52:53.217Z,48.90
2018-05-09T15:55:20.837Z,50.20
2018-05-09T15:57:48.440Z,50.30
2018-05-09T16:00:16.045Z,50.00
2018-05-09T16:02:43.665Z,50.30
2018-05-09T16:05:11.251Z,50.00
2018-05-09T16:07:38.878Z,47.60
2018-05-09T16:10:06.473Z,47.80
2018-05-09T16:12:34.065Z,47.30
2018-05-09T16:15:01.688Z,50.10
2018-05-09T16:17:30.067Z,46.30
2018-05-09T16:19:58.451Z,45.70
2018-05-09T16:22:26.052Z,45.70
2018-05-09T16:24:53.644Z,46.00
2018-05-09T16:27:22.035Z,45.70
2018-05-09T16:29:50.386Z,47.40
2018-05-09T16:32:18.009Z,47.30
2018-05-09T16:34:45.599Z,47.10
2018-05-09T16:37:13.194Z,47.60
2018-05-09T16:39:41.582Z,46.00
2018-05-09T16:42:15.609Z,46.40
2018-05-09T16:44:43.225Z,46.30
2018-05-09T16:47:10.817Z,48.00
2018-05-09T16:49:39.176Z,47.70
2018-05-09T16:52:07.548Z,48.90
2018-05-09T16:54:35.148Z,48.90
2018-05-09T16:57:02.761Z,46.60
2018-05-09T16:59:30.355Z,48.60
2018-05-09T17:01:57.948Z,49.50
2018-05-09T17:04:25.572Z,49.70
2018-05-09T17:06:53.921Z,49.60
2018-05-09T17:12:15.035Z,48.70
2018-05-09T17:14:42.917Z,47.90
2018-05-09T17:17:11.307Z,46.70
2018-05-09T17:19:39.675Z,48.30
2018-05-09T17:22:24.976Z,48.30
2018-05-09T17:24:53.399Z,48.40
2018-05-09T17:27:20.983Z,48.40
2018-05-09T17:29:48.568Z,46.00
2018-05-09T17:32:16.927Z,47.80
2018-05-09T17:34:44.545Z,47.90
2018-05-09T17:37:12.141Z,47.50
2018-05-09T17:39:39.760Z,47.40
2018-05-09T17:42:07.361Z,50.00
2018-05-09T17:44:34.959Z,51.60
2018-05-09T17:47:02.724Z,52.50
2018-05-09T17:49:30.319Z,52.80
2018-05-09T17:51:57.951Z,53.10
2018-05-09T17:54:25.589Z,55.30
2018-05-09T17:56:53.169Z,56.60
2018-05-09T17:59:20.792Z,57.20
2018-05-09T18:01:48.394Z,54.50
2018-05-09T18:04:16.009Z,57.10
2018-05-09T18:06:43.684Z,58.00
2018-05-09T18:09:11.224Z,58.40
2018-05-09T18:11:38.851Z,57.90
2018-05-09T18:14:06.433Z,59.70
2018-05-09T18:16:34.048Z,59.80
2018-05-09T18:19:02.035Z,60.30
2018-05-09T18:21:29.652Z,62.40
2018-05-09T18:23:57.281Z,62.10
2018-05-09T18:26:24.885Z,62.40
2018-05-09T18:28:53.287Z,64.90
2018-05-09T18:31:21.127Z,64.80
2018-05-09T18:33:49.488Z,63.90
2018-05-09T18:36:17.105Z,63.80
2018-05-09T18:38:44.712Z,64.30
2018-05-09T18:41:12.580Z,64.90
2018-05-09T18:43:40.828Z,67.20
2018-05-09T18:46:08.845Z,66.30
2018-05-09T18:48:37.244Z,66.80
2018-05-09T18:51:04.843Z,66.80
2018-05-09T18:53:32.468Z,68.30
2018-05-09T18:56:00.061Z,69.00
2018-05-09T18:58:27.655Z,70.40
2018-05-09T19:00:55.292Z,71.90
2018-05-09T19:03:24.814Z,71.90
2018-05-09T19:05:52.510Z,72.50
2018-05-09T19:08:20.139Z,72.70
2018-05-09T19:10:48.097Z,72.60
2018-05-09T19:13:15.729Z,73.40
2018-05-09T19:15:43.334Z,72.20
2018-05-09T19:18:11.790Z,72.50
2018-05-09T19:20:39.449Z,72.80
2018-05-09T19:23:07.070Z,73.20
2018-05-09T19:25:35.588Z,74.30
2018-05-09T19:28:03.240Z,73.90
2018-05-09T19:30:30.831Z,75.40
2018-05-09T19:32:58.445Z,74.30
2018-05-09T19:35:26.060Z,75.60
2018-05-09T19:37:54.441Z,76.10
2018-05-09T19:40:42.394Z,76.70
2018-05-09T19:43:10.740Z,78.50
2018-05-09T19:45:44.562Z,78.50
2018-05-09T19:48:12.930Z,77.20
2018-05-09T19:50:40.521Z,77.20
2018-05-09T19:53:10.125Z,76.30
2018-05-09T19:55:38.500Z,77.20
2018-05-09T19:58:06.884Z,77.60
2018-05-09T20:00:34.479Z,77.60
2018-05-09T20:03:09.272Z,77.60
2018-05-09T20:05:37.628Z,77.80
2018-05-09T20:08:11.623Z,77.70
2018-05-09T20:10:39.280Z,78.20
2018-05-09T20:13:06.877Z,78.40
2018-05-09T20:15:43.004Z,80.60
2018-05-09T20:18:20.778Z,80.50
2018-05-09T20:20:48.409Z,81.10
2018-05-09T20:23:26.232Z,80.60
2018-05-09T20:25:53.878Z,81.00
2018-05-09T20:28:21.589Z,79.80
2018-05-09T20:30:54.802Z,79.00
2018-05-09T20:36:17.193Z,82.40
2018-05-09T20:38:44.793Z,91.00
2018-05-09T20:41:31.196Z,94.90
2018-05-09T20:44:02.976Z,99.90
2018-05-09T20:46:32.266Z,99.90
2018-05-09T20:48:59.913Z,99.90
2018-05-09T20:51:45.546Z,99.90
2018-05-09T20:54:21.193Z,99.90
2018-05-09T20:56:49.569Z,99.90
2018-05-09T20:59:17.206Z,99.90
2018-05-09T21:01:47.447Z,99.90
2018-05-09T21:04:15.109Z,99.90
2018-05-09T21:06:43.485Z,99.90
2018-05-09T21:09:11.938Z,99.90
2018-05-09T21:11:39.629Z,99.90
2018-05-09T21:14:07.986Z,99.90
2018-05-09T21:16:36.383Z,99.90
2018-05-09T21:19:04.752Z,99.90
2018-05-09T21:21:33.138Z,99.90
2018-05-09T21:24:01.534Z,99.90
2018-05-09T21:26:29.149Z,99.90
2018-05-09T21:28:56.773Z,99.90
2018-05-09T21:31:24.412Z,99.90
2018-05-09T21:33:52.016Z,99.90
2018-05-09T21:36:19.642Z,99.90
2018-05-09T21:38:47.266Z,99.90
2018-05-09T21:41:14.865Z,99.90
2018-05-09T21:43:42.490Z,99.90
2018-05-09T21:46:10.110Z,99.90
2018-05-09T21:48:37.756Z,99.90
2018-05-09T21:51:05.370Z,99.90
2018-05-09T21:53:32.974Z,99.90
2018-05-09T21:56:00.630Z,99.90
2018-05-09T21:58:47.958Z,99.90
2018-05-09T22:01:15.598Z,99.90
2018-05-09T22:03:43.204Z,99.90
2018-05-09T22:06:10.800Z,99.90
2018-05-09T22:08:56.353Z,99.90
2018-05-09T22:11:24.864Z,99.90
2018-05-09T22:13:53.265Z,99.90
2018-05-09T22:16:20.857Z,99.90
2018-05-09T22:18:48.524Z,99.90
2018-05-09T22:21:16.872Z,99.90
2018-05-09T22:23:44.469Z,99.90
2018-05-09T22:26:12.105Z,99.90
2018-05-09T22:28:39.700Z,99.90
2018-05-09T22:31:07.308Z,99.90
2018-05-09T22:33:34.931Z,99.90
2018-05-09T22:36:02.536Z,99.90
2018-05-09T22:38:30.165Z,99.90
2018-05-09T22:40:57.764Z,99.90
2018-05-09T22:43:25.364Z,99.90
2018-05-09T22:45:52.988Z,99.90
2018-05-09T22:48:20.621Z,99.90
2018-05-09T22:50:48.265Z,99.90
2018-05-09T22:53:15.860Z,99.90
2018-05-09T22:55:43.450Z,99.90
2018-05-09T22:58:11.070Z,99.90
2018-05-09T23:00:38.668Z,99.90
2018-05-09T23:03:06.294Z,99.90
2018-05-09T23:05:33.902Z,99.90
2018-05-09T23:08:01.508Z,99.90
2018-05-09T23:10:29.908Z,99.90
2018-05-09T23:12:57.496Z,99.90
2018-05-09T23:15:25.112Z,99.90
2018-05-09T23:17:52.709Z,99.90
2018-05-09T23:20:20.304Z,99.90
2018-05-09T23:22:47.932Z,99.90
2018-05-09T23:25:15.532Z,99.90
2018-05-09T23:27:43.162Z,99.90
2018-05-09T23:30:10.758Z,99.90
2018-05-09T23:32:39.119Z,99.90
2018-05-09T23:35:06.740Z,99.90
2018-05-09T23:37:38.016Z,99.90
2018-05-09T23:40:05.644Z,99.90
2018-05-09T23:42:33.237Z,99.90
2018-05-09T23:45:00.844Z,99.90
2018-05-09T23:47:28.452Z,99.90
2018-05-09T23:49:56.042Z,99.90
2018-05-09T23:52:23.684Z,99.90
2018-05-09T23:54:51.280Z,99.90
2018-05-09T23:57:19.644Z,99.90
2018-05-09T23:59:48.027Z,99.90
